sensor_id;sensor_type;location;lat;lon;timestamp;P1;durP1;ratioP1;P2;durP2;ratioP2
70814;SDS011;58428;49.478;10.986;2023-04-28T00:00:26;8.60;;;4.68;;
70814;SDS011;58428;49.478;10.986;2023-04-28T00:02:52;10.73;;;4.72;;
70814;SDS011;58428;49.478;10.986;2023-04-28T00:05:19;8.90;;;4.78;;
70814;SDS011;58428;49.478;10.986;2023-04-28T00:07:48;17.10;;;7.00;;
70814;SDS011;58428;49.478;10.986;2023-04-28T00:10:13;12.05;;;5.40;;
70814;SDS011;58428;49.478;10.986;2023-04-28T00:12:39;12.13;;;5.97;;
70814;SDS011;58428;49.478;10.986;2023-04-28T00:15:04;11.25;;;5.07;;
70814;SDS011;58428;49.478;10.986;2023-04-28T00:17:30;8.48;;;4.57;;
70814;SDS011;58428;49.478;10.986;2023-04-28T00:19:58;10.00;;;5.22;;
70814;SDS011;58428;49.478;10.986;2023-04-28T00:22:23;9.23;;;5.35;;
70814;SDS011;58428;49.478;10.986;2023-04-28T00:24:49;9.30;;;5.00;;
70814;SDS011;58428;49.478;10.986;2023-04-28T00:27:14;8.60;;;5.28;;
70814;SDS011;58428;49.478;10.986;2023-04-28T00:29:39;9.38;;;4.90;;
70814;SDS011;58428;49.478;10.986;2023-04-28T00:32:05;8.47;;;4.90;;
70814;SDS011;58428;49.478;10.986;2023-04-28T00:34:33;13.13;;;5.50;;
70814;SDS011;58428;49.478;10.986;2023-04-28T00:37:01;9.70;;;5.00;;
70814;SDS011;58428;49.478;10.986;2023-04-28T00:39:27;11.50;;;5.53;;
70814;SDS011;58428;49.478;10.986;2023-04-28T00:41:53;11.30;;;5.35;;
70814;SDS011;58428;49.478;10.986;2023-04-28T00:44:18;11.32;;;5.45;;
70814;SDS011;58428;49.478;10.986;2023-04-28T00:46:43;10.60;;;6.00;;
70814;SDS011;58428;49.478;10.986;2023-04-28T00:49:09;12.38;;;6.03;;
70814;SDS011;58428;49.478;10.986;2023-04-28T00:51:35;10.15;;;4.70;;
70814;SDS011;58428;49.478;10.986;2023-04-28T00:54:01;9.93;;;4.93;;
70814;SDS011;58428;49.478;10.986;2023-04-28T00:56:30;10.20;;;4.97;;
70814;SDS011;58428;49.478;10.986;2023-04-28T00:58:56;9.50;;;5.00;;
70814;SDS011;58428;49.478;10.986;2023-04-28T01:01:21;8.93;;;4.57;;
70814;SDS011;58428;49.478;10.986;2023-04-28T01:03:47;11.88;;;4.63;;
70814;SDS011;58428;49.478;10.986;2023-04-28T01:06:13;8.70;;;5.03;;
70814;SDS011;58428;49.478;10.986;2023-04-28T01:08:38;8.10;;;4.88;;
70814;SDS011;58428;49.478;10.986;2023-04-28T01:11:04;9.70;;;5.03;;
70814;SDS011;58428;49.478;10.986;2023-04-28T01:13:30;9.00;;;5.15;;
70814;SDS011;58428;49.478;10.986;2023-04-28T01:15:55;8.35;;;5.13;;
70814;SDS011;58428;49.478;10.986;2023-04-28T01:18:21;9.07;;;4.88;;
70814;SDS011;58428;49.478;10.986;2023-04-28T01:20:47;12.50;;;5.40;;
70814;SDS011;58428;49.478;10.986;2023-04-28T01:23:15;13.10;;;5.32;;
70814;SDS011;58428;49.478;10.986;2023-04-28T01:25:41;10.20;;;4.88;;
70814;SDS011;58428;49.478;10.986;2023-04-28T01:28:08;9.88;;;4.80;;
70814;SDS011;58428;49.478;10.986;2023-04-28T01:30:34;11.65;;;5.30;;
70814;SDS011;58428;49.478;10.986;2023-04-28T01:35:26;9.63;;;4.70;;
70814;SDS011;58428;49.478;10.986;2023-04-28T01:37:52;8.88;;;4.93;;
70814;SDS011;58428;49.478;10.986;2023-04-28T01:40:17;9.00;;;4.95;;
70814;SDS011;58428;49.478;10.986;2023-04-28T01:42:44;9.00;;;4.97;;
70814;SDS011;58428;49.478;10.986;2023-04-28T01:45:10;8.13;;;4.28;;
70814;SDS011;58428;49.478;10.986;2023-04-28T01:47:35;8.38;;;5.05;;
70814;SDS011;58428;49.478;10.986;2023-04-28T01:50:02;7.50;;;4.40;;
70814;SDS011;58428;49.478;10.986;2023-04-28T01:52:28;7.72;;;4.15;;
70814;SDS011;58428;49.478;10.986;2023-04-28T01:54:54;8.25;;;4.90;;
70814;SDS011;58428;49.478;10.986;2023-04-28T01:57:19;6.93;;;4.25;;
70814;SDS011;58428;49.478;10.986;2023-04-28T01:59:46;9.40;;;4.80;;
70814;SDS011;58428;49.478;10.986;2023-04-28T02:02:14;9.05;;;4.82;;
70814;SDS011;58428;49.478;10.986;2023-04-28T02:04:40;7.45;;;4.20;;
70814;SDS011;58428;49.478;10.986;2023-04-28T02:07:06;8.90;;;4.90;;
70814;SDS011;58428;49.478;10.986;2023-04-28T02:09:31;7.55;;;4.47;;
70814;SDS011;58428;49.478;10.986;2023-04-28T02:12:00;7.78;;;4.70;;
70814;SDS011;58428;49.478;10.986;2023-04-28T02:14:27;9.55;;;4.38;;
70814;SDS011;58428;49.478;10.986;2023-04-28T02:16:53;6.55;;;4.68;;
70814;SDS011;58428;49.478;10.986;2023-04-28T02:19:18;9.65;;;4.57;;
70814;SDS011;58428;49.478;10.986;2023-04-28T02:21:43;9.38;;;4.90;;
70814;SDS011;58428;49.478;10.986;2023-04-28T02:24:09;8.68;;;4.35;;
70814;SDS011;58428;49.478;10.986;2023-04-28T02:26:34;9.82;;;4.82;;
70814;SDS011;58428;49.478;10.986;2023-04-28T02:29:03;8.13;;;4.30;;
70814;SDS011;58428;49.478;10.986;2023-04-28T02:31:28;11.35;;;5.00;;
70814;SDS011;58428;49.478;10.986;2023-04-28T02:33:54;8.23;;;4.60;;
70814;SDS011;58428;49.478;10.986;2023-04-28T02:36:20;8.48;;;4.60;;
70814;SDS011;58428;49.478;10.986;2023-04-28T02:38:45;9.10;;;4.35;;
70814;SDS011;58428;49.478;10.986;2023-04-28T02:41:11;6.95;;;4.65;;
70814;SDS011;58428;49.478;10.986;2023-04-28T02:43:39;10.60;;;4.93;;
70814;SDS011;58428;49.478;10.986;2023-04-28T02:46:05;7.68;;;4.43;;
70814;SDS011;58428;49.478;10.986;2023-04-28T02:48:32;8.30;;;4.70;;
70814;SDS011;58428;49.478;10.986;2023-04-28T02:51:00;7.55;;;4.13;;
70814;SDS011;58428;49.478;10.986;2023-04-28T02:53:26;9.27;;;4.60;;
70814;SDS011;58428;49.478;10.986;2023-04-28T02:55:52;8.45;;;5.40;;
70814;SDS011;58428;49.478;10.986;2023-04-28T02:58:18;8.07;;;5.00;;
70814;SDS011;58428;49.478;10.986;2023-04-28T03:00:44;8.55;;;4.35;;
70814;SDS011;58428;49.478;10.986;2023-04-28T03:03:11;9.27;;;4.50;;
70814;SDS011;58428;49.478;10.986;2023-04-28T03:05:37;9.50;;;5.00;;
70814;SDS011;58428;49.478;10.986;2023-04-28T03:08:02;7.78;;;4.32;;
70814;SDS011;58428;49.478;10.986;2023-04-28T03:10:28;7.10;;;4.32;;
70814;SDS011;58428;49.478;10.986;2023-04-28T03:12:53;8.80;;;4.53;;
70814;SDS011;58428;49.478;10.986;2023-04-28T03:15:18;11.50;;;5.13;;
70814;SDS011;58428;49.478;10.986;2023-04-28T03:17:44;8.95;;;4.90;;
70814;SDS011;58428;49.478;10.986;2023-04-28T03:20:11;10.57;;;5.28;;
70814;SDS011;58428;49.478;10.986;2023-04-28T03:25:02;11.07;;;5.78;;
70814;SDS011;58428;49.478;10.986;2023-04-28T03:27:29;9.82;;;4.50;;
70814;SDS011;58428;49.478;10.986;2023-04-28T03:29:55;8.82;;;4.60;;
70814;SDS011;58428;49.478;10.986;2023-04-28T03:32:20;7.72;;;4.40;;
70814;SDS011;58428;49.478;10.986;2023-04-28T03:34:48;7.88;;;4.40;;
70814;SDS011;58428;49.478;10.986;2023-04-28T03:37:13;9.70;;;4.65;;
70814;SDS011;58428;49.478;10.986;2023-04-28T03:39:39;10.02;;;4.90;;
70814;SDS011;58428;49.478;10.986;2023-04-28T03:42:04;7.13;;;5.10;;
70814;SDS011;58428;49.478;10.986;2023-04-28T03:44:30;7.60;;;4.68;;
70814;SDS011;58428;49.478;10.986;2023-04-28T03:46:55;10.00;;;5.43;;
70814;SDS011;58428;49.478;10.986;2023-04-28T03:49:21;8.85;;;4.57;;
70814;SDS011;58428;49.478;10.986;2023-04-28T03:51:47;8.25;;;4.72;;
70814;SDS011;58428;49.478;10.986;2023-04-28T03:54:14;10.45;;;4.90;;
70814;SDS011;58428;49.478;10.986;2023-04-28T03:56:39;7.88;;;4.72;;
70814;SDS011;58428;49.478;10.986;2023-04-28T03:59:05;8.57;;;5.20;;
70814;SDS011;58428;49.478;10.986;2023-04-28T04:01:31;9.50;;;5.10;;
70814;SDS011;58428;49.478;10.986;2023-04-28T04:03:56;8.32;;;4.90;;
70814;SDS011;58428;49.478;10.986;2023-04-28T04:06:22;9.05;;;5.30;;
70814;SDS011;58428;49.478;10.986;2023-04-28T04:08:48;10.45;;;4.97;;
70814;SDS011;58428;49.478;10.986;2023-04-28T04:11:14;7.65;;;4.28;;
70814;SDS011;58428;49.478;10.986;2023-04-28T04:13:39;8.82;;;5.40;;
70814;SDS011;58428;49.478;10.986;2023-04-28T04:16:05;8.57;;;4.72;;
70814;SDS011;58428;49.478;10.986;2023-04-28T04:20:56;9.52;;;4.72;;
70814;SDS011;58428;49.478;10.986;2023-04-28T04:23:22;11.48;;;5.43;;
70814;SDS011;58428;49.478;10.986;2023-04-28T04:25:48;10.38;;;5.80;;
70814;SDS011;58428;49.478;10.986;2023-04-28T04:28:14;9.38;;;5.40;;
70814;SDS011;58428;49.478;10.986;2023-04-28T04:30:40;11.40;;;5.07;;
70814;SDS011;58428;49.478;10.986;2023-04-28T04:33:06;9.27;;;4.72;;
70814;SDS011;58428;49.478;10.986;2023-04-28T04:35:33;9.05;;;5.03;;
70814;SDS011;58428;49.478;10.986;2023-04-28T04:37:59;8.98;;;4.57;;
70814;SDS011;58428;49.478;10.986;2023-04-28T04:42:50;9.10;;;4.55;;
70814;SDS011;58428;49.478;10.986;2023-04-28T04:45:16;11.18;;;4.70;;
70814;SDS011;58428;49.478;10.986;2023-04-28T04:47:42;7.90;;;4.70;;
70814;SDS011;58428;49.478;10.986;2023-04-28T04:50:09;8.77;;;5.38;;
70814;SDS011;58428;49.478;10.986;2023-04-28T04:52:36;9.50;;;5.28;;
70814;SDS011;58428;49.478;10.986;2023-04-28T04:55:02;11.20;;;4.43;;
70814;SDS011;58428;49.478;10.986;2023-04-28T04:57:28;9.95;;;5.00;;
70814;SDS011;58428;49.478;10.986;2023-04-28T04:59:55;8.77;;;5.22;;
70814;SDS011;58428;49.478;10.986;2023-04-28T05:02:21;9.38;;;5.50;;
70814;SDS011;58428;49.478;10.986;2023-04-28T05:04:46;10.48;;;4.88;;
70814;SDS011;58428;49.478;10.986;2023-04-28T05:07:12;10.30;;;4.85;;
70814;SDS011;58428;49.478;10.986;2023-04-28T05:09:37;11.10;;;5.70;;
70814;SDS011;58428;49.478;10.986;2023-04-28T05:12:03;10.35;;;4.97;;
70814;SDS011;58428;49.478;10.986;2023-04-28T05:14:28;10.43;;;5.38;;
70814;SDS011;58428;49.478;10.986;2023-04-28T05:16:54;9.77;;;5.40;;
70814;SDS011;58428;49.478;10.986;2023-04-28T05:19:19;9.57;;;5.05;;
70814;SDS011;58428;49.478;10.986;2023-04-28T05:21:45;8.98;;;5.25;;
70814;SDS011;58428;49.478;10.986;2023-04-28T05:24:16;10.82;;;6.10;;
70814;SDS011;58428;49.478;10.986;2023-04-28T05:26:41;9.85;;;5.00;;
70814;SDS011;58428;49.478;10.986;2023-04-28T05:29:07;9.48;;;5.38;;
70814;SDS011;58428;49.478;10.986;2023-04-28T05:31:34;9.00;;;5.45;;
70814;SDS011;58428;49.478;10.986;2023-04-28T05:33:59;8.68;;;5.53;;
70814;SDS011;58428;49.478;10.986;2023-04-28T05:36:26;9.95;;;5.20;;
70814;SDS011;58428;49.478;10.986;2023-04-28T05:38:51;10.02;;;4.60;;
70814;SDS011;58428;49.478;10.986;2023-04-28T05:41:17;9.63;;;5.10;;
70814;SDS011;58428;49.478;10.986;2023-04-28T05:43:43;9.75;;;5.40;;
70814;SDS011;58428;49.478;10.986;2023-04-28T05:46:08;9.02;;;5.07;;
70814;SDS011;58428;49.478;10.986;2023-04-28T05:48:35;9.48;;;5.88;;
70814;SDS011;58428;49.478;10.986;2023-04-28T05:51:00;8.63;;;4.80;;
70814;SDS011;58428;49.478;10.986;2023-04-28T05:53:26;9.10;;;5.03;;
70814;SDS011;58428;49.478;10.986;2023-04-28T05:55:51;10.27;;;5.43;;
70814;SDS011;58428;49.478;10.986;2023-04-28T05:58:17;9.25;;;4.90;;
70814;SDS011;58428;49.478;10.986;2023-04-28T06:00:42;10.00;;;4.88;;
70814;SDS011;58428;49.478;10.986;2023-04-28T06:03:08;11.70;;;5.63;;
70814;SDS011;58428;49.478;10.986;2023-04-28T06:05:35;11.10;;;5.45;;
70814;SDS011;58428;49.478;10.986;2023-04-28T06:10:27;8.98;;;4.78;;
70814;SDS011;58428;49.478;10.986;2023-04-28T06:12:54;9.60;;;5.50;;
70814;SDS011;58428;49.478;10.986;2023-04-28T06:15:19;9.40;;;5.20;;
70814;SDS011;58428;49.478;10.986;2023-04-28T06:17:45;9.88;;;5.10;;
70814;SDS011;58428;49.478;10.986;2023-04-28T06:20:10;8.25;;;4.80;;
70814;SDS011;58428;49.478;10.986;2023-04-28T06:22:37;7.60;;;4.60;;
70814;SDS011;58428;49.478;10.986;2023-04-28T06:25:03;9.90;;;5.05;;
70814;SDS011;58428;49.478;10.986;2023-04-28T06:27:30;9.38;;;4.82;;
70814;SDS011;58428;49.478;10.986;2023-04-28T06:29:57;8.77;;;4.70;;
70814;SDS011;58428;49.478;10.986;2023-04-28T06:32:22;8.02;;;4.47;;
70814;SDS011;58428;49.478;10.986;2023-04-28T06:34:48;10.27;;;5.25;;
70814;SDS011;58428;49.478;10.986;2023-04-28T06:37:13;7.68;;;4.85;;
70814;SDS011;58428;49.478;10.986;2023-04-28T06:39:39;9.35;;;5.45;;
70814;SDS011;58428;49.478;10.986;2023-04-28T06:42:06;9.13;;;5.60;;
70814;SDS011;58428;49.478;10.986;2023-04-28T06:44:31;9.52;;;4.75;;
70814;SDS011;58428;49.478;10.986;2023-04-28T06:46:57;7.60;;;5.38;;
70814;SDS011;58428;49.478;10.986;2023-04-28T06:49:22;7.80;;;4.65;;
70814;SDS011;58428;49.478;10.986;2023-04-28T06:51:48;12.52;;;5.25;;
70814;SDS011;58428;49.478;10.986;2023-04-28T06:54:13;9.05;;;5.57;;
70814;SDS011;58428;49.478;10.986;2023-04-28T06:56:39;10.40;;;5.20;;
70814;SDS011;58428;49.478;10.986;2023-04-28T06:59:04;8.77;;;5.40;;
70814;SDS011;58428;49.478;10.986;2023-04-28T07:01:30;9.55;;;5.45;;
70814;SDS011;58428;49.478;10.986;2023-04-28T07:03:55;9.18;;;5.45;;
70814;SDS011;58428;49.478;10.986;2023-04-28T07:06:20;8.07;;;5.27;;
70814;SDS011;58428;49.478;10.986;2023-04-28T07:08:46;9.30;;;5.45;;
70814;SDS011;58428;49.478;10.986;2023-04-28T07:11:11;9.07;;;5.38;;
70814;SDS011;58428;49.478;10.986;2023-04-28T07:13:37;9.93;;;4.97;;
70814;SDS011;58428;49.478;10.986;2023-04-28T07:16:02;11.00;;;5.50;;
70814;SDS011;58428;49.478;10.986;2023-04-28T07:18:28;10.20;;;6.13;;
70814;SDS011;58428;49.478;10.986;2023-04-28T07:20:54;10.80;;;5.25;;
70814;SDS011;58428;49.478;10.986;2023-04-28T07:25:59;10.40;;;5.63;;
70814;SDS011;58428;49.478;10.986;2023-04-28T07:28:45;8.88;;;5.60;;
70814;SDS011;58428;49.478;10.986;2023-04-28T07:31:11;10.20;;;5.45;;
70814;SDS011;58428;49.478;10.986;2023-04-28T07:33:37;9.40;;;5.70;;
70814;SDS011;58428;49.478;10.986;2023-04-28T07:36:02;10.23;;;6.20;;
70814;SDS011;58428;49.478;10.986;2023-04-28T07:38:29;9.00;;;5.45;;
70814;SDS011;58428;49.478;10.986;2023-04-28T07:40:54;9.88;;;5.85;;
70814;SDS011;58428;49.478;10.986;2023-04-28T07:43:21;11.18;;;6.35;;
70814;SDS011;58428;49.478;10.986;2023-04-28T07:45:46;12.38;;;5.45;;
70814;SDS011;58428;49.478;10.986;2023-04-28T07:48:13;11.55;;;5.95;;
70814;SDS011;58428;49.478;10.986;2023-04-28T07:50:40;12.20;;;7.28;;
70814;SDS011;58428;49.478;10.986;2023-04-28T07:53:05;13.00;;;6.90;;
70814;SDS011;58428;49.478;10.986;2023-04-28T07:55:31;14.98;;;7.40;;
70814;SDS011;58428;49.478;10.986;2023-04-28T07:57:56;12.35;;;6.50;;
70814;SDS011;58428;49.478;10.986;2023-04-28T08:00:24;11.43;;;6.88;;
70814;SDS011;58428;49.478;10.986;2023-04-28T08:02:51;11.88;;;6.60;;
70814;SDS011;58428;49.478;10.986;2023-04-28T08:05:18;13.27;;;6.70;;
70814;SDS011;58428;49.478;10.986;2023-04-28T08:07:43;12.25;;;6.30;;
70814;SDS011;58428;49.478;10.986;2023-04-28T08:10:14;10.45;;;6.35;;
70814;SDS011;58428;49.478;10.986;2023-04-28T08:12:40;12.57;;;6.50;;
70814;SDS011;58428;49.478;10.986;2023-04-28T08:15:05;11.02;;;6.53;;
70814;SDS011;58428;49.478;10.986;2023-04-28T08:17:33;15.93;;;7.55;;
70814;SDS011;58428;49.478;10.986;2023-04-28T08:19:58;11.15;;;6.72;;
70814;SDS011;58428;49.478;10.986;2023-04-28T08:22:24;10.98;;;6.80;;
70814;SDS011;58428;49.478;10.986;2023-04-28T08:24:50;9.63;;;6.15;;
70814;SDS011;58428;49.478;10.986;2023-04-28T08:27:15;10.45;;;6.88;;
70814;SDS011;58428;49.478;10.986;2023-04-28T08:29:40;11.38;;;5.93;;
70814;SDS011;58428;49.478;10.986;2023-04-28T08:32:06;11.40;;;7.15;;
70814;SDS011;58428;49.478;10.986;2023-04-28T08:34:32;11.70;;;7.20;;
70814;SDS011;58428;49.478;10.986;2023-04-28T08:36:58;11.30;;;6.97;;
70814;SDS011;58428;49.478;10.986;2023-04-28T08:39:24;12.13;;;6.03;;
70814;SDS011;58428;49.478;10.986;2023-04-28T08:41:51;10.30;;;6.20;;
70814;SDS011;58428;49.478;10.986;2023-04-28T08:44:17;12.25;;;7.45;;
70814;SDS011;58428;49.478;10.986;2023-04-28T08:46:45;11.07;;;6.60;;
70814;SDS011;58428;49.478;10.986;2023-04-28T08:49:14;12.23;;;6.20;;
70814;SDS011;58428;49.478;10.986;2023-04-28T08:51:58;13.68;;;7.53;;
70814;SDS011;58428;49.478;10.986;2023-04-28T08:54:28;11.90;;;6.28;;
70814;SDS011;58428;49.478;10.986;2023-04-28T08:56:58;11.80;;;7.18;;
70814;SDS011;58428;49.478;10.986;2023-04-28T08:59:25;11.70;;;6.60;;
70814;SDS011;58428;49.478;10.986;2023-04-28T09:01:50;12.52;;;6.55;;
70814;SDS011;58428;49.478;10.986;2023-04-28T09:04:16;12.48;;;6.80;;
70814;SDS011;58428;49.478;10.986;2023-04-28T09:06:42;12.77;;;6.50;;
70814;SDS011;58428;49.478;10.986;2023-04-28T09:09:20;9.18;;;6.30;;
70814;SDS011;58428;49.478;10.986;2023-04-28T09:11:59;10.18;;;6.22;;
70814;SDS011;58428;49.478;10.986;2023-04-28T09:14:28;10.82;;;7.10;;
70814;SDS011;58428;49.478;10.986;2023-04-28T09:16:55;10.13;;;6.00;;
70814;SDS011;58428;49.478;10.986;2023-04-28T09:19:21;12.13;;;6.97;;
70814;SDS011;58428;49.478;10.986;2023-04-28T09:21:58;10.75;;;6.30;;
70814;SDS011;58428;49.478;10.986;2023-04-28T09:27:01;12.45;;;6.20;;
70814;SDS011;58428;49.478;10.986;2023-04-28T09:29:28;9.88;;;6.22;;
70814;SDS011;58428;49.478;10.986;2023-04-28T09:34:44;9.70;;;6.65;;
70814;SDS011;58428;49.478;10.986;2023-04-28T09:37:14;11.88;;;6.63;;
70814;SDS011;58428;49.478;10.986;2023-04-28T09:39:42;12.13;;;5.97;;
70814;SDS011;58428;49.478;10.986;2023-04-28T09:42:37;11.40;;;6.47;;
70814;SDS011;58428;49.478;10.986;2023-04-28T09:47:33;13.02;;;7.22;;
70814;SDS011;58428;49.478;10.986;2023-04-28T09:50:02;10.75;;;6.88;;
70814;SDS011;58428;49.478;10.986;2023-04-28T09:52:32;11.25;;;6.35;;
70814;SDS011;58428;49.478;10.986;2023-04-28T09:55:00;13.27;;;6.07;;
70814;SDS011;58428;49.478;10.986;2023-04-28T09:57:29;10.10;;;7.03;;
70814;SDS011;58428;49.478;10.986;2023-04-28T09:59:59;11.95;;;5.88;;
70814;SDS011;58428;49.478;10.986;2023-04-28T10:02:26;14.10;;;7.13;;
70814;SDS011;58428;49.478;10.986;2023-04-28T10:04:52;13.98;;;8.27;;
70814;SDS011;58428;49.478;10.986;2023-04-28T10:07:18;10.65;;;7.15;;
70814;SDS011;58428;49.478;10.986;2023-04-28T10:09:47;10.00;;;7.07;;
70814;SDS011;58428;49.478;10.986;2023-04-28T10:12:16;10.07;;;6.15;;
70814;SDS011;58428;49.478;10.986;2023-04-28T10:14:44;10.75;;;6.90;;
70814;SDS011;58428;49.478;10.986;2023-04-28T10:17:14;10.18;;;6.88;;
70814;SDS011;58428;49.478;10.986;2023-04-28T10:19:40;11.48;;;7.10;;
70814;SDS011;58428;49.478;10.986;2023-04-28T10:25:16;9.40;;;5.85;;
70814;SDS011;58428;49.478;10.986;2023-04-28T10:30:25;8.98;;;5.45;;
70814;SDS011;58428;49.478;10.986;2023-04-28T10:40:44;10.65;;;6.68;;
70814;SDS011;58428;49.478;10.986;2023-04-28T10:56:09;13.00;;;6.93;;
70814;SDS011;58428;49.478;10.986;2023-04-28T10:58:50;11.13;;;7.05;;
70814;SDS011;58428;49.478;10.986;2023-04-28T11:06:22;10.60;;;6.63;;
70814;SDS011;58428;49.478;10.986;2023-04-28T11:08:56;13.23;;;7.88;;
70814;SDS011;58428;49.478;10.986;2023-04-28T11:14:32;10.20;;;6.00;;
70814;SDS011;58428;49.478;10.986;2023-04-28T11:17:08;7.75;;;5.47;;
70814;SDS011;58428;49.478;10.986;2023-04-28T11:25:03;8.80;;;5.78;;
70814;SDS011;58428;49.478;10.986;2023-04-28T11:27:29;7.13;;;5.18;;
70814;SDS011;58428;49.478;10.986;2023-04-28T11:29:56;7.82;;;5.82;;
70814;SDS011;58428;49.478;10.986;2023-04-28T11:34:54;8.15;;;5.50;;
70814;SDS011;58428;49.478;10.986;2023-04-28T11:39:47;10.20;;;4.95;;
70814;SDS011;58428;49.478;10.986;2023-04-28T11:42:14;7.28;;;4.75;;
70814;SDS011;58428;49.478;10.986;2023-04-28T11:44:41;7.22;;;4.78;;
70814;SDS011;58428;49.478;10.986;2023-04-28T11:47:14;8.27;;;5.45;;
70814;SDS011;58428;49.478;10.986;2023-04-28T11:49:42;7.18;;;5.35;;
70814;SDS011;58428;49.478;10.986;2023-04-28T11:52:08;7.20;;;5.60;;
70814;SDS011;58428;49.478;10.986;2023-04-28T11:54:34;6.32;;;4.32;;
70814;SDS011;58428;49.478;10.986;2023-04-28T11:57:01;8.13;;;5.80;;
70814;SDS011;58428;49.478;10.986;2023-04-28T11:59:32;6.75;;;5.10;;
70814;SDS011;58428;49.478;10.986;2023-04-28T12:02:00;7.10;;;4.70;;
70814;SDS011;58428;49.478;10.986;2023-04-28T12:07:15;6.55;;;4.90;;
70814;SDS011;58428;49.478;10.986;2023-04-28T12:09:42;10.80;;;5.47;;
70814;SDS011;58428;49.478;10.986;2023-04-28T12:12:10;7.28;;;4.95;;
70814;SDS011;58428;49.478;10.986;2023-04-28T12:14:56;8.02;;;5.00;;
70814;SDS011;58428;49.478;10.986;2023-04-28T12:17:27;6.70;;;4.68;;
70814;SDS011;58428;49.478;10.986;2023-04-28T12:19:54;6.43;;;4.32;;
70814;SDS011;58428;49.478;10.986;2023-04-28T12:22:20;6.00;;;4.30;;
70814;SDS011;58428;49.478;10.986;2023-04-28T12:25:05;6.85;;;4.78;;
70814;SDS011;58428;49.478;10.986;2023-04-28T12:27:33;6.60;;;4.55;;
70814;SDS011;58428;49.478;10.986;2023-04-28T12:32:51;6.72;;;4.15;;
70814;SDS011;58428;49.478;10.986;2023-04-28T12:35:20;6.80;;;4.15;;
70814;SDS011;58428;49.478;10.986;2023-04-28T12:37:46;5.45;;;4.05;;
70814;SDS011;58428;49.478;10.986;2023-04-28T12:42:38;6.78;;;4.22;;
70814;SDS011;58428;49.478;10.986;2023-04-28T12:45:04;6.07;;;4.13;;
70814;SDS011;58428;49.478;10.986;2023-04-28T12:47:30;6.40;;;4.22;;
70814;SDS011;58428;49.478;10.986;2023-04-28T12:49:56;7.05;;;4.07;;
70814;SDS011;58428;49.478;10.986;2023-04-28T12:52:21;7.07;;;4.68;;
70814;SDS011;58428;49.478;10.986;2023-04-28T12:54:47;6.07;;;4.40;;
70814;SDS011;58428;49.478;10.986;2023-04-28T12:57:17;5.68;;;3.97;;
70814;SDS011;58428;49.478;10.986;2023-04-28T12:59:45;6.85;;;4.80;;
70814;SDS011;58428;49.478;10.986;2023-04-28T13:02:12;5.63;;;4.25;;
70814;SDS011;58428;49.478;10.986;2023-04-28T13:04:38;7.15;;;4.82;;
70814;SDS011;58428;49.478;10.986;2023-04-28T13:07:04;6.30;;;4.13;;
70814;SDS011;58428;49.478;10.986;2023-04-28T13:09:31;6.18;;;4.57;;
70814;SDS011;58428;49.478;10.986;2023-04-28T13:11:57;6.45;;;4.45;;
70814;SDS011;58428;49.478;10.986;2023-04-28T13:14:23;7.55;;;4.00;;
70814;SDS011;58428;49.478;10.986;2023-04-28T13:16:51;6.07;;;4.70;;
70814;SDS011;58428;49.478;10.986;2023-04-28T13:19:17;6.15;;;4.30;;
70814;SDS011;58428;49.478;10.986;2023-04-28T13:21:43;6.05;;;4.38;;
70814;SDS011;58428;49.478;10.986;2023-04-28T13:24:11;5.97;;;4.38;;
70814;SDS011;58428;49.478;10.986;2023-04-28T13:26:38;7.28;;;4.75;;
70814;SDS011;58428;49.478;10.986;2023-04-28T13:29:04;5.88;;;4.05;;
70814;SDS011;58428;49.478;10.986;2023-04-28T13:33:55;8.95;;;6.20;;
70814;SDS011;58428;49.478;10.986;2023-04-28T13:36:22;29.33;;;12.38;;
70814;SDS011;58428;49.478;10.986;2023-04-28T13:38:48;16.38;;;8.60;;
70814;SDS011;58428;49.478;10.986;2023-04-28T13:41:15;10.65;;;6.25;;
70814;SDS011;58428;49.478;10.986;2023-04-28T13:43:41;8.10;;;5.10;;
70814;SDS011;58428;49.478;10.986;2023-04-28T13:46:08;7.47;;;4.13;;
70814;SDS011;58428;49.478;10.986;2023-04-28T13:48:34;6.75;;;3.80;;
70814;SDS011;58428;49.478;10.986;2023-04-28T13:51:01;5.03;;;3.40;;
70814;SDS011;58428;49.478;10.986;2023-04-28T13:53:28;5.53;;;3.88;;
70814;SDS011;58428;49.478;10.986;2023-04-28T13:55:55;5.60;;;3.58;;
70814;SDS011;58428;49.478;10.986;2023-04-28T13:58:24;5.45;;;3.88;;
70814;SDS011;58428;49.478;10.986;2023-04-28T14:00:54;5.35;;;3.30;;
70814;SDS011;58428;49.478;10.986;2023-04-28T14:03:21;5.25;;;3.42;;
70814;SDS011;58428;49.478;10.986;2023-04-28T14:05:48;10.73;;;5.30;;
70814;SDS011;58428;49.478;10.986;2023-04-28T14:08:14;7.63;;;4.28;;
70814;SDS011;58428;49.478;10.986;2023-04-28T14:10:40;6.68;;;3.83;;
70814;SDS011;58428;49.478;10.986;2023-04-28T14:13:06;5.53;;;3.60;;
70814;SDS011;58428;49.478;10.986;2023-04-28T14:15:31;5.30;;;3.70;;
70814;SDS011;58428;49.478;10.986;2023-04-28T14:17:58;5.28;;;3.28;;
70814;SDS011;58428;49.478;10.986;2023-04-28T14:20:23;5.82;;;3.40;;
70814;SDS011;58428;49.478;10.986;2023-04-28T14:22:49;7.22;;;4.60;;
70814;SDS011;58428;49.478;10.986;2023-04-28T14:25:15;4.70;;;3.28;;
70814;SDS011;58428;49.478;10.986;2023-04-28T14:27:48;4.80;;;3.10;;
70814;SDS011;58428;49.478;10.986;2023-04-28T14:30:15;4.95;;;3.42;;
70814;SDS011;58428;49.478;10.986;2023-04-28T14:32:40;4.78;;;3.17;;
70814;SDS011;58428;49.478;10.986;2023-04-28T14:35:06;6.65;;;3.10;;
70814;SDS011;58428;49.478;10.986;2023-04-28T14:37:32;5.25;;;3.13;;
70814;SDS011;58428;49.478;10.986;2023-04-28T14:39:58;7.88;;;5.60;;
70814;SDS011;58428;49.478;10.986;2023-04-28T14:42:29;7.50;;;4.93;;
70814;SDS011;58428;49.478;10.986;2023-04-28T14:44:59;11.50;;;7.43;;
70814;SDS011;58428;49.478;10.986;2023-04-28T14:47:24;6.32;;;3.50;;
70814;SDS011;58428;49.478;10.986;2023-04-28T14:49:52;4.07;;;2.80;;
70814;SDS011;58428;49.478;10.986;2023-04-28T14:52:22;5.95;;;2.75;;
70814;SDS011;58428;49.478;10.986;2023-04-28T14:54:50;6.15;;;3.17;;
70814;SDS011;58428;49.478;10.986;2023-04-28T14:57:15;5.35;;;3.30;;
70814;SDS011;58428;49.478;10.986;2023-04-28T14:59:42;5.07;;;3.10;;
70814;SDS011;58428;49.478;10.986;2023-04-28T15:02:07;4.93;;;3.17;;
70814;SDS011;58428;49.478;10.986;2023-04-28T15:04:33;9.00;;;5.95;;
70814;SDS011;58428;49.478;10.986;2023-04-28T15:06:59;5.18;;;3.40;;
70814;SDS011;58428;49.478;10.986;2023-04-28T15:09:25;4.53;;;2.80;;
70814;SDS011;58428;49.478;10.986;2023-04-28T15:11:51;4.95;;;3.10;;
70814;SDS011;58428;49.478;10.986;2023-04-28T15:14:17;4.32;;;2.80;;
70814;SDS011;58428;49.478;10.986;2023-04-28T15:16:43;5.25;;;3.22;;
70814;SDS011;58428;49.478;10.986;2023-04-28T15:19:09;4.13;;;2.63;;
70814;SDS011;58428;49.478;10.986;2023-04-28T15:21:34;4.22;;;2.80;;
70814;SDS011;58428;49.478;10.986;2023-04-28T15:24:18;5.55;;;3.45;;
70814;SDS011;58428;49.478;10.986;2023-04-28T15:26:45;4.85;;;3.10;;
70814;SDS011;58428;49.478;10.986;2023-04-28T15:29:11;4.93;;;2.90;;
70814;SDS011;58428;49.478;10.986;2023-04-28T15:31:37;5.70;;;2.40;;
70814;SDS011;58428;49.478;10.986;2023-04-28T15:34:04;4.72;;;2.42;;
70814;SDS011;58428;49.478;10.986;2023-04-28T15:36:29;4.63;;;2.70;;
70814;SDS011;58428;49.478;10.986;2023-04-28T15:38:55;4.25;;;2.58;;
70814;SDS011;58428;49.478;10.986;2023-04-28T15:41:20;5.00;;;2.53;;
70814;SDS011;58428;49.478;10.986;2023-04-28T15:43:46;4.65;;;2.83;;
70814;SDS011;58428;49.478;10.986;2023-04-28T15:46:15;4.53;;;3.00;;